sensor_id;sensor_type;location;lat;lon;timestamp;pressure;altitude;pressure_sealevel;temperature;humidity
18436;BME280;9346;52.006;4.720;2023-04-28T00:00:31;101239.16;;;10.64;100.00
18436;BME280;9346;52.006;4.720;2023-04-28T00:02:58;101227.56;;;10.62;100.00
18436;BME280;9346;52.006;4.720;2023-04-28T00:05:25;101230.00;;;10.58;100.00
18436;BME280;9346;52.006;4.720;2023-04-28T00:07:52;101220.88;;;10.53;100.00
18436;BME280;9346;52.006;4.720;2023-04-28T00:10:21;101217.84;;;10.49;100.00
18436;BME280;9346;52.006;4.720;2023-04-28T00:12:48;101207.09;;;10.48;100.00
18436;BME280;9346;52.006;4.720;2023-04-28T00:15:15;101202.94;;;10.45;100.00
18436;BME280;9346;52.006;4.720;2023-04-28T00:17:42;101198.78;;;10.43;100.00
18436;BME280;9346;52.006;4.720;2023-04-28T00:20:10;101203.75;;;10.41;100.00
18436;BME280;9346;52.006;4.720;2023-04-28T00:22:37;101196.81;;;10.38;100.00
18436;BME280;9346;52.006;4.720;2023-04-28T00:25:06;101198.19;;;10.36;100.00
18436;BME280;9346;52.006;4.720;2023-04-28T00:27:35;101202.03;;;10.35;100.00
18436;BME280;9346;52.006;4.720;2023-04-28T00:30:02;101194.03;;;10.33;100.00
18436;BME280;9346;52.006;4.720;2023-04-28T00:32:29;101189.59;;;10.32;100.00
18436;BME280;9346;52.006;4.720;2023-04-28T00:34:57;101182.19;;;10.33;100.00
18436;BME280;9346;52.006;4.720;2023-04-28T00:37:23;101175.56;;;10.34;100.00
18436;BME280;9346;52.006;4.720;2023-04-28T00:39:53;101171.19;;;10.33;100.00
18436;BME280;9346;52.006;4.720;2023-04-28T00:42:22;101174.19;;;10.31;100.00
18436;BME280;9346;52.006;4.720;2023-04-28T00:44:51;101170.59;;;10.31;100.00
18436;BME280;9346;52.006;4.720;2023-04-28T00:47:17;101177.22;;;10.30;100.00
18436;BME280;9346;52.006;4.720;2023-04-28T00:49:45;101166.47;;;10.28;100.00
18436;BME280;9346;52.006;4.720;2023-04-28T00:52:14;101162.06;;;10.27;100.00
18436;BME280;9346;52.006;4.720;2023-04-28T00:54:40;101154.91;;;10.26;100.00
18436;BME280;9346;52.006;4.720;2023-04-28T00:57:09;101146.34;;;10.28;100.00
18436;BME280;9346;52.006;4.720;2023-04-28T00:59:36;101141.13;;;10.26;100.00
18436;BME280;9346;52.006;4.720;2023-04-28T01:02:05;101149.66;;;10.25;100.00
18436;BME280;9346;52.006;4.720;2023-04-28T01:04:32;101153.47;;;10.24;100.00
18436;BME280;9346;52.006;4.720;2023-04-28T01:07:00;101138.91;;;10.23;100.00
18436;BME280;9346;52.006;4.720;2023-04-28T01:09:28;101141.66;;;10.23;100.00
18436;BME280;9346;52.006;4.720;2023-04-28T01:11:55;101130.34;;;10.20;100.00
18436;BME280;9346;52.006;4.720;2023-04-28T01:14:22;101123.19;;;10.19;100.00
18436;BME280;9346;52.006;4.720;2023-04-28T01:16:49;101120.69;;;10.17;100.00
18436;BME280;9346;52.006;4.720;2023-04-28T01:19:20;101114.34;;;10.17;100.00
18436;BME280;9346;52.006;4.720;2023-04-28T01:21:48;101120.44;;;10.19;100.00
18436;BME280;9346;52.006;4.720;2023-04-28T01:24:17;101116.84;;;10.18;100.00
18436;BME280;9346;52.006;4.720;2023-04-28T01:26:44;101107.75;;;10.18;100.00
18436;BME280;9346;52.006;4.720;2023-04-28T01:29:11;101099.47;;;10.18;100.00
18436;BME280;9346;52.006;4.720;2023-04-28T01:31:41;101095.06;;;10.17;100.00
18436;BME280;9346;52.006;4.720;2023-04-28T01:34:08;101102.22;;;10.18;100.00
18436;BME280;9346;52.006;4.720;2023-04-28T01:36:35;101095.06;;;10.17;100.00
18436;BME280;9346;52.006;4.720;2023-04-28T01:39:02;101083.81;;;10.18;100.00
18436;BME280;9346;52.006;4.720;2023-04-28T01:41:31;101091.22;;;10.18;100.00
18436;BME280;9346;52.006;4.720;2023-04-28T01:43:58;101087.94;;;10.16;100.00
18436;BME280;9346;52.006;4.720;2023-04-28T01:46:25;101074.16;;;10.16;100.00
18436;BME280;9346;52.006;4.720;2023-04-28T01:48:52;101075.25;;;10.15;100.00
18436;BME280;9346;52.006;4.720;2023-04-28T01:51:20;101071.41;;;10.16;100.00
18436;BME280;9346;52.006;4.720;2023-04-28T01:53:47;101071.41;;;10.16;100.00
18436;BME280;9346;52.006;4.720;2023-04-28T01:56:14;101053.47;;;10.13;100.00
18436;BME280;9346;52.006;4.720;2023-04-28T01:58:44;101056.50;;;10.12;100.00
18436;BME280;9346;52.006;4.720;2023-04-28T02:01:11;101064.75;;;10.12;100.00
18436;BME280;9346;52.006;4.720;2023-04-28T02:03:38;101066.44;;;10.13;100.00
18436;BME280;9346;52.006;4.720;2023-04-28T02:06:05;101065.59;;;10.12;100.00
18436;BME280;9346;52.006;4.720;2023-04-28T02:08:32;101070.25;;;10.12;100.00
18436;BME280;9346;52.006;4.720;2023-04-28T02:11:01;101068.63;;;10.11;100.00
18436;BME280;9346;52.006;4.720;2023-04-28T02:13:28;101056.78;;;10.10;100.00
18436;BME280;9346;52.006;4.720;2023-04-28T02:15:59;101044.09;;;10.09;100.00
18436;BME280;9346;52.006;4.720;2023-04-28T02:18:26;101039.44;;;10.10;100.00
18436;BME280;9346;52.006;4.720;2023-04-28T02:20:53;101038.06;;;10.12;100.00
18436;BME280;9346;52.006;4.720;2023-04-28T02:23:20;101038.88;;;10.08;100.00
18436;BME280;9346;52.006;4.720;2023-04-28T02:25:47;101028.97;;;10.07;100.00
18436;BME280;9346;52.006;4.720;2023-04-28T02:28:14;101022.63;;;10.06;100.00
18436;BME280;9346;52.006;4.720;2023-04-28T02:30:41;101020.44;;;10.08;100.00
18436;BME280;9346;52.006;4.720;2023-04-28T02:33:09;101021.28;;;10.09;100.00
18436;BME280;9346;52.006;4.720;2023-04-28T02:35:36;101014.09;;;10.08;100.00
18436;BME280;9346;52.006;4.720;2023-04-28T02:38:03;101008.59;;;10.08;100.00
18436;BME280;9346;52.006;4.720;2023-04-28T02:40:30;101006.09;;;10.06;100.00
18436;BME280;9346;52.006;4.720;2023-04-28T02:42:57;101007.19;;;10.05;100.00
18436;BME280;9346;52.006;4.720;2023-04-28T02:45:24;100998.91;;;10.05;100.00
18436;BME280;9346;52.006;4.720;2023-04-28T02:47:51;101003.94;;;10.08;100.00
18436;BME280;9346;52.006;4.720;2023-04-28T02:50:20;101000.34;;;10.08;100.00
18436;BME280;9346;52.006;4.720;2023-04-28T02:52:47;100996.50;;;10.09;100.00
18436;BME280;9346;52.006;4.720;2023-04-28T02:55:14;100985.78;;;10.07;100.00
18436;BME280;9346;52.006;4.720;2023-04-28T02:57:48;100991.78;;;10.04;100.00
18436;BME280;9346;52.006;4.720;2023-04-28T03:00:15;101003.59;;;10.05;100.00
18436;BME280;9346;52.006;4.720;2023-04-28T03:02:42;101001.94;;;10.04;100.00
18436;BME280;9346;52.006;4.720;2023-04-28T03:05:09;100995.59;;;10.03;100.00
18436;BME280;9346;52.006;4.720;2023-04-28T03:07:37;100998.63;;;10.02;100.00
18436;BME280;9346;52.006;4.720;2023-04-28T03:10:05;100998.63;;;10.02;100.00
18436;BME280;9346;52.006;4.720;2023-04-28T03:12:32;100998.88;;;10.00;100.00
18436;BME280;9346;52.006;4.720;2023-04-28T03:14:59;100995.31;;;10.00;100.00
18436;BME280;9346;52.006;4.720;2023-04-28T03:17:26;100995.31;;;10.00;100.00
18436;BME280;9346;52.006;4.720;2023-04-28T03:19:54;101006.31;;;10.00;100.00
18436;BME280;9346;52.006;4.720;2023-04-28T03:22:21;100999.16;;;9.99;100.00
18436;BME280;9346;52.006;4.720;2023-04-28T03:24:49;100992.84;;;9.98;100.00
18436;BME280;9346;52.006;4.720;2023-04-28T03:27:16;100979.88;;;9.99;100.00
18436;BME280;9346;52.006;4.720;2023-04-28T03:29:43;100979.88;;;9.94;100.00
18436;BME280;9346;52.006;4.720;2023-04-28T03:32:10;100973.53;;;9.93;100.00
18436;BME280;9346;52.006;4.720;2023-04-28T03:34:37;100972.72;;;9.93;100.00
18436;BME280;9346;52.006;4.720;2023-04-28T03:37:04;100971.63;;;9.94;100.00
18436;BME280;9346;52.006;4.720;2023-04-28T03:39:31;100954.00;;;9.90;100.00
18436;BME280;9346;52.006;4.720;2023-04-28T03:41:59;100965.53;;;9.87;100.00
18436;BME280;9346;52.006;4.720;2023-04-28T03:44:26;100964.69;;;9.86;100.00
18436;BME280;9346;52.006;4.720;2023-04-28T03:46:54;100957.81;;;9.84;100.00
18436;BME280;9346;52.006;4.720;2023-04-28T03:49:21;100948.97;;;9.82;100.00
18436;BME280;9346;52.006;4.720;2023-04-28T03:51:48;100953.38;;;9.83;100.00
18436;BME280;9346;52.006;4.720;2023-04-28T03:54:16;100952.84;;;9.81;100.00
18436;BME280;9346;52.006;4.720;2023-04-28T03:56:43;100946.22;;;9.82;100.00
18436;BME280;9346;52.006;4.720;2023-04-28T03:59:12;100940.19;;;9.80;100.00
18436;BME280;9346;52.006;4.720;2023-04-28T04:01:39;100934.13;;;9.83;100.00
18436;BME280;9346;52.006;4.720;2023-04-28T04:04:06;100931.94;;;9.85;100.00
18436;BME280;9346;52.006;4.720;2023-04-28T04:06:33;100928.94;;;9.86;100.00
18436;BME280;9346;52.006;4.720;2023-04-28T04:09:00;100923.44;;;9.86;100.00
18436;BME280;9346;52.006;4.720;2023-04-28T04:11:28;100911.03;;;9.89;100.00
18436;BME280;9346;52.006;4.720;2023-04-28T04:13:55;100905.00;;;9.87;100.00
18436;BME280;9346;52.006;4.720;2023-04-28T04:16:24;100901.09;;;9.83;100.00
18436;BME280;9346;52.006;4.720;2023-04-28T04:18:50;100904.16;;;9.81;100.00
18436;BME280;9346;52.006;4.720;2023-04-28T04:21:17;100895.34;;;9.79;100.00
18436;BME280;9346;52.006;4.720;2023-04-28T04:23:45;100889.84;;;9.79;100.00
18436;BME280;9346;52.006;4.720;2023-04-28T04:26:12;100882.69;;;9.78;100.00
18436;BME280;9346;52.006;4.720;2023-04-28T04:28:38;100884.59;;;9.78;100.00
18436;BME280;9346;52.006;4.720;2023-04-28T04:31:06;100879.09;;;9.78;100.00
18436;BME280;9346;52.006;4.720;2023-04-28T04:33:34;100884.03;;;9.76;100.00
18436;BME280;9346;52.006;4.720;2023-04-28T04:36:02;100881.00;;;9.77;100.00
18436;BME280;9346;52.006;4.720;2023-04-28T04:38:29;100892.28;;;9.76;100.00
18436;BME280;9346;52.006;4.720;2023-04-28T04:40:56;100889.25;;;9.77;100.00
18436;BME280;9346;52.006;4.720;2023-04-28T04:43:23;100890.09;;;9.78;100.00
18436;BME280;9346;52.006;4.720;2023-04-28T04:45:50;100901.41;;;9.81;100.00
18436;BME280;9346;52.006;4.720;2023-04-28T04:48:17;100908.56;;;9.82;100.00
18436;BME280;9346;52.006;4.720;2023-04-28T04:50:45;100917.91;;;9.86;100.00
18436;BME280;9346;52.006;4.720;2023-04-28T04:53:13;100914.91;;;9.88;100.00
18436;BME280;9346;52.006;4.720;2023-04-28T04:55:40;100909.41;;;9.88;100.00
18436;BME280;9346;52.006;4.720;2023-04-28T04:58:07;100901.16;;;9.88;100.00
18436;BME280;9346;52.006;4.720;2023-04-28T05:00:34;100899.25;;;9.88;100.00
18436;BME280;9346;52.006;4.720;2023-04-28T05:03:03;100897.81;;;9.86;100.00
18436;BME280;9346;52.006;4.720;2023-04-28T05:05:30;100902.25;;;9.87;100.00
18436;BME280;9346;52.006;4.720;2023-04-28T05:07:58;100904.47;;;9.90;100.00
18436;BME280;9346;52.006;4.720;2023-04-28T05:10:26;100900.34;;;9.92;100.00
18436;BME280;9346;52.006;4.720;2023-04-28T05:12:53;100916.00;;;9.92;100.00
18436;BME280;9346;52.006;4.720;2023-04-28T05:15:28;100919.34;;;9.94;100.00
18436;BME280;9346;52.006;4.720;2023-04-28T05:17:55;100918.50;;;9.93;100.00
18436;BME280;9346;52.006;4.720;2023-04-28T05:20:23;100911.34;;;9.92;100.00
18436;BME280;9346;52.006;4.720;2023-04-28T05:22:50;100903.63;;;9.89;100.00
18436;BME280;9346;52.006;4.720;2023-04-28T05:25:19;100911.03;;;9.84;100.00
18436;BME280;9346;52.006;4.720;2023-04-28T05:27:46;100916.81;;;9.82;100.00
18436;BME280;9346;52.006;4.720;2023-04-28T05:30:13;100902.22;;;9.82;100.00
18436;BME280;9346;52.006;4.720;2023-04-28T05:32:41;100903.84;;;9.78;100.00
18436;BME280;9346;52.006;4.720;2023-04-28T05:35:08;100890.06;;;9.73;100.00
18436;BME280;9346;52.006;4.720;2023-04-28T05:37:35;100896.09;;;9.70;100.00
18436;BME280;9346;52.006;4.720;2023-04-28T05:40:05;100901.06;;;9.68;100.00
18436;BME280;9346;52.006;4.720;2023-04-28T05:42:34;100891.69;;;9.64;100.00
18436;BME280;9346;52.006;4.720;2023-04-28T05:45:01;100891.13;;;9.62;100.00
18436;BME280;9346;52.006;4.720;2023-04-28T05:47:28;100878.41;;;9.56;100.00
18436;BME280;9346;52.006;4.720;2023-04-28T05:49:55;100871.81;;;9.52;100.00
18436;BME280;9346;52.006;4.720;2023-04-28T05:52:22;100881.13;;;9.46;100.00
18436;BME280;9346;52.006;4.720;2023-04-28T05:54:50;100882.50;;;9.43;100.00
18436;BME280;9346;52.006;4.720;2023-04-28T05:57:17;100880.81;;;9.42;100.00
18436;BME280;9346;52.006;4.720;2023-04-28T05:59:46;100881.13;;;9.46;100.00
18436;BME280;9346;52.006;4.720;2023-04-28T06:02:13;100884.44;;;9.53;100.00
18436;BME280;9346;52.006;4.720;2023-04-28T06:04:40;100881.97;;;9.51;100.00
18436;BME280;9346;52.006;4.720;2023-04-28T06:07:08;100877.31;;;9.52;100.00
18436;BME280;9346;52.006;4.720;2023-04-28T06:09:35;100879.53;;;9.55;100.00
18436;BME280;9346;52.006;4.720;2023-04-28T06:12:03;100881.19;;;9.56;100.00
18436;BME280;9346;52.006;4.720;2023-04-28T06:14:30;100886.41;;;9.57;100.00
18436;BME280;9346;52.006;4.720;2023-04-28T06:16:59;100896.63;;;9.62;100.00
18436;BME280;9346;52.006;4.720;2023-04-28T06:19:26;100886.19;;;9.64;100.00
18436;BME280;9346;52.006;4.720;2023-04-28T06:21:53;100892.50;;;9.64;100.00
18436;BME280;9346;52.006;4.720;2023-04-28T06:24:21;100887.31;;;9.68;100.00
18436;BME280;9346;52.006;4.720;2023-04-28T06:26:49;100879.59;;;9.70;100.00
18436;BME280;9346;52.006;4.720;2023-04-28T06:29:16;100880.16;;;9.72;100.00
18436;BME280;9346;52.006;4.720;2023-04-28T06:31:44;100890.06;;;9.73;100.00
18436;BME280;9346;52.006;4.720;2023-04-28T06:34:13;100897.50;;;9.77;100.00
18436;BME280;9346;52.006;4.720;2023-04-28T06:36:42;100890.66;;;9.80;100.00
18436;BME280;9346;52.006;4.720;2023-04-28T06:39:09;100895.91;;;9.86;100.00
18436;BME280;9346;52.006;4.720;2023-04-28T06:41:37;100884.09;;;9.91;100.00
18436;BME280;9346;52.006;4.720;2023-04-28T06:44:04;100873.41;;;9.99;100.00
18436;BME280;9346;52.006;4.720;2023-04-28T06:46:31;100871.22;;;10.01;100.00
18436;BME280;9346;52.006;4.720;2023-04-28T06:48:59;100865.47;;;10.08;100.00
18436;BME280;9346;52.006;4.720;2023-04-28T06:51:27;100876.50;;;10.08;100.00
18436;BME280;9346;52.006;4.720;2023-04-28T06:53:57;100877.59;;;10.12;100.00
18436;BME280;9346;52.006;4.720;2023-04-28T06:56:27;100868.28;;;10.23;100.00
18436;BME280;9346;52.006;4.720;2023-04-28T06:58:55;100858.41;;;10.32;100.00
18436;BME280;9346;52.006;4.720;2023-04-28T07:01:23;100858.41;;;10.37;100.00
18436;BME280;9346;52.006;4.720;2023-04-28T07:03:50;100868.34;;;10.43;100.00
18436;BME280;9346;52.006;4.720;2023-04-28T07:06:18;100872.75;;;10.39;100.00
18436;BME280;9346;52.006;4.720;2023-04-28T07:08:48;100875.22;;;10.40;100.00
18436;BME280;9346;52.006;4.720;2023-04-28T07:11:16;100884.31;;;10.46;100.00
18436;BME280;9346;52.006;4.720;2023-04-28T07:13:43;100878.84;;;10.51;100.00
18436;BME280;9346;52.006;4.720;2023-04-28T07:16:14;100884.88;;;10.53;100.00
18436;BME280;9346;52.006;4.720;2023-04-28T07:18:43;100882.13;;;10.53;100.00
18436;BME280;9346;52.006;4.720;2023-04-28T07:21:12;100890.09;;;10.54;100.00
18436;BME280;9346;52.006;4.720;2023-04-28T07:23:41;100893.16;;;10.58;100.00
18436;BME280;9346;52.006;4.720;2023-04-28T07:26:12;100887.09;;;10.56;100.00
18436;BME280;9346;52.006;4.720;2023-04-28T07:28:40;100901.16;;;10.59;100.00
18436;BME280;9346;52.006;4.720;2023-04-28T07:31:08;100904.72;;;10.60;100.00
18436;BME280;9346;52.006;4.720;2023-04-28T07:33:35;100904.72;;;10.60;100.00
18436;BME280;9346;52.006;4.720;2023-04-28T07:36:02;100903.63;;;10.61;100.00
18436;BME280;9346;52.006;4.720;2023-04-28T07:38:30;100911.34;;;10.64;100.00
18436;BME280;9346;52.006;4.720;2023-04-28T07:40:59;100910.50;;;10.63;100.00
18436;BME280;9346;52.006;4.720;2023-04-28T07:43:29;100921.81;;;10.67;100.00
18436;BME280;9346;52.006;4.720;2023-04-28T07:45:56;100919.88;;;10.67;100.00
18436;BME280;9346;52.006;4.720;2023-04-28T07:48:24;100917.94;;;10.73;100.00
18436;BME280;9346;52.006;4.720;2023-04-28T07:50:52;100919.09;;;10.77;100.00
18436;BME280;9346;52.006;4.720;2023-04-28T07:53:19;100914.41;;;10.82;100.00
18436;BME280;9346;52.006;4.720;2023-04-28T07:55:46;100910.25;;;10.85;100.00
18436;BME280;9346;52.006;4.720;2023-04-28T07:58:14;100911.34;;;10.89;100.00
18436;BME280;9346;52.006;4.720;2023-04-28T08:00:43;100915.25;;;10.93;100.00
18436;BME280;9346;52.006;4.720;2023-04-28T08:03:11;100919.66;;;10.99;100.00
18436;BME280;9346;52.006;4.720;2023-04-28T08:05:41;100924.06;;;11.00;100.00
18436;BME280;9346;52.006;4.720;2023-04-28T08:08:11;100928.47;;;11.06;100.00
18436;BME280;9346;52.006;4.720;2023-04-28T08:10:38;100923.78;;;11.11;100.00
18436;BME280;9346;52.006;4.720;2023-04-28T08:13:08;100923.50;;;11.18;100.00
18436;BME280;9346;52.006;4.720;2023-04-28T08:15:35;100927.38;;;11.17;100.00
18436;BME280;9346;52.006;4.720;2023-04-28T08:18:04;100928.47;;;11.21;100.00
18436;BME280;9346;52.006;4.720;2023-04-28T08:20:33;100931.22;;;11.26;100.00
18436;BME280;9346;52.006;4.720;2023-04-28T08:23:02;100935.38;;;11.33;100.00
18436;BME280;9346;52.006;4.720;2023-04-28T08:25:30;100932.31;;;11.40;100.00
18436;BME280;9346;52.006;4.720;2023-04-28T08:27:57;100935.06;;;11.40;100.00
18436;BME280;9346;52.006;4.720;2023-04-28T08:30:25;100935.63;;;11.42;100.00
18436;BME280;9346;52.006;4.720;2023-04-28T08:32:53;100942.25;;;11.46;100.00
18436;BME280;9346;52.006;4.720;2023-04-28T08:35:22;100947.75;;;11.51;100.00
18436;BME280;9346;52.006;4.720;2023-04-28T08:37:50;100941.69;;;11.54;100.00
18436;BME280;9346;52.006;4.720;2023-04-28T08:40:18;100942.50;;;11.60;100.00
18436;BME280;9346;52.006;4.720;2023-04-28T08:42:49;100945.56;;;11.63;100.00
18436;BME280;9346;52.006;4.720;2023-04-28T08:45:17;100944.44;;;11.69;100.00
18436;BME280;9346;52.006;4.720;2023-04-28T08:47:47;100940.00;;;11.78;100.00
18436;BME280;9346;52.006;4.720;2023-04-28T08:50:20;100937.78;;;11.85;100.00
18436;BME280;9346;52.006;4.720;2023-04-28T08:52:51;100941.63;;;11.89;100.00
18436;BME280;9346;52.006;4.720;2023-04-28T08:55:20;100938.88;;;11.94;100.00
18436;BME280;9346;52.006;4.720;2023-04-28T08:57:48;100930.53;;;12.04;100.00
18436;BME280;9346;52.006;4.720;2023-04-28T09:00:19;100933.81;;;12.11;100.00
18436;BME280;9346;52.006;4.720;2023-04-28T09:02:49;100933.25;;;12.14;100.00
18436;BME280;9346;52.006;4.720;2023-04-28T09:05:16;100937.09;;;12.18;100.00
18436;BME280;9346;52.006;4.720;2023-04-28T09:07:45;100932.41;;;12.24;100.00
18436;BME280;9346;52.006;4.720;2023-04-28T09:10:19;100938.16;;;12.32;100.00
18436;BME280;9346;52.006;4.720;2023-04-28T09:12:50;100934.84;;;12.35;100.00
18436;BME280;9346;52.006;4.720;2023-04-28T09:15:25;100935.06;;;12.44;100.00
18436;BME280;9346;52.006;4.720;2023-04-28T09:17:53;100930.34;;;12.49;100.00
18436;BME280;9346;52.006;4.720;2023-04-28T09:20:21;100928.38;;;12.55;100.00
18436;BME280;9346;52.006;4.720;2023-04-28T09:22:49;100929.19;;;12.60;100.00
18436;BME280;9346;52.006;4.720;2023-04-28T09:25:19;100927.44;;;12.69;100.00
18436;BME280;9346;52.006;4.720;2023-04-28T09:27:48;100918.56;;;12.77;100.00
18436;BME280;9346;52.006;4.720;2023-04-28T09:30:15;100921.84;;;12.79;100.00
18436;BME280;9346;52.006;4.720;2023-04-28T09:32:42;100922.97;;;12.83;100.00
18436;BME280;9346;52.006;4.720;2023-04-28T09:35:10;100926.78;;;12.87;100.00
18436;BME280;9346;52.006;4.720;2023-04-28T09:37:39;100918.44;;;12.92;100.00
18436;BME280;9346;52.006;4.720;2023-04-28T09:40:09;100919.84;;;12.95;100.00
18436;BME280;9346;52.006;4.720;2023-04-28T09:42:41;100923.94;;;12.97;100.00
18436;BME280;9346;52.006;4.720;2023-04-28T09:45:11;100924.25;;;13.01;100.00
18436;BME280;9346;52.006;4.720;2023-04-28T09:47:39;100912.00;;;13.07;100.00
18436;BME280;9346;52.006;4.720;2023-04-28T09:50:09;100917.50;;;13.12;100.00
18436;BME280;9346;52.006;4.720;2023-04-28T09:52:37;100921.06;;;13.17;100.00
18436;BME280;9346;52.006;4.720;2023-04-28T09:55:06;100916.84;;;13.25;100.00
18436;BME280;9346;52.006;4.720;2023-04-28T09:57:35;100923.69;;;13.32;100.00
18436;BME280;9346;52.006;4.720;2023-04-28T10:00:08;100927.78;;;13.40;100.00
18436;BME280;9346;52.006;4.720;2023-04-28T10:02:37;100918.84;;;13.48;100.00
18436;BME280;9346;52.006;4.720;2023-04-28T10:05:05;100924.03;;;13.55;100.00
18436;BME280;9346;52.006;4.720;2023-04-28T10:07:35;100926.16;;;13.63;100.00
18436;BME280;9346;52.006;4.720;2023-04-28T10:10:04;100922.22;;;13.69;100.00
18436;BME280;9346;52.006;4.720;2023-04-28T10:12:34;100921.34;;;13.73;100.00
18436;BME280;9346;52.006;4.720;2023-04-28T10:15:03;100915.41;;;13.85;100.00
18436;BME280;9346;52.006;4.720;2023-04-28T10:17:33;100919.19;;;13.94;100.00
18436;BME280;9346;52.006;4.720;2023-04-28T10:20:04;100916.31;;;14.04;100.00
18436;BME280;9346;52.006;4.720;2023-04-28T10:22:43;100916.19;;;14.14;100.00
18436;BME280;9346;52.006;4.720;2023-04-28T10:25:25;100915.00;;;14.20;100.00
18436;BME280;9346;52.006;4.720;2023-04-28T10:27:54;100908.31;;;14.26;100.00
18436;BME280;9346;52.006;4.720;2023-04-28T10:30:35;100914.66;;;14.26;100.00
18436;BME280;9346;52.006;4.720;2023-04-28T10:33:33;100909.34;;;14.30;100.00
18436;BME280;9346;52.006;4.720;2023-04-28T10:36:00;100913.75;;;14.31;100.00
18436;BME280;9346;52.006;4.720;2023-04-28T10:38:28;100911.53;;;14.33;100.00
18436;BME280;9346;52.006;4.720;2023-04-28T10:40:56;100921.44;;;14.39;100.00
18436;BME280;9346;52.006;4.720;2023-04-28T10:43:37;100912.75;;;14.45;100.00
18436;BME280;9346;52.006;4.720;2023-04-28T10:46:07;100917.09;;;14.51;100.00
18436;BME280;9346;52.006;4.720;2023-04-28T10:49:06;100917.94;;;14.52;100.00
18436;BME280;9346;52.006;4.720;2023-04-28T10:51:34;100919.56;;;14.53;100.00
18436;BME280;9346;52.006;4.720;2023-04-28T10:54:23;100915.38;;;14.55;100.00
18436;BME280;9346;52.006;4.720;2023-04-28T10:57:17;100920.09;;;14.55;100.00
18436;BME280;9346;52.006;4.720;2023-04-28T10:59:46;100914.56;;;14.55;100.00
18436;BME280;9346;52.006;4.720;2023-04-28T11:02:41;100916.19;;;14.56;100.00
18436;BME280;9346;52.006;4.720;2023-04-28T11:05:15;100912.38;;;14.52;100.00
18436;BME280;9346;52.006;4.720;2023-04-28T11:11:20;100907.72;;;14.47;100.00
18436;BME280;9346;52.006;4.720;2023-04-28T11:13:50;100908.03;;;14.46;100.00
18436;BME280;9346;52.006;4.720;2023-04-28T11:16:23;100912.97;;;14.49;100.00
18436;BME280;9346;52.006;4.720;2023-04-28T11:18:55;100912.28;;;14.57;100.00
18436;BME280;9346;52.006;4.720;2023-04-28T11:21:25;100908.94;;;14.60;100.00
18436;BME280;9346;52.006;4.720;2023-04-28T11:23:54;100906.25;;;14.55;100.00
18436;BME280;9346;52.006;4.720;2023-04-28T11:26:36;100903.78;;;14.53;100.00
18436;BME280;9346;52.006;4.720;2023-04-28T11:29:04;100903.25;;;14.51;100.00
18436;BME280;9346;52.006;4.720;2023-04-28T11:31:32;100907.66;;;14.52;100.00
18436;BME280;9346;52.006;4.720;2023-04-28T11:34:03;100919.50;;;14.58;100.00
18436;BME280;9346;52.006;4.720;2023-04-28T11:36:34;100915.25;;;14.65;100.00
18436;BME280;9346;52.006;4.720;2023-04-28T11:39:04;100917.41;;;14.68;100.00
18436;BME280;9346;52.006;4.720;2023-04-28T11:41:32;100923.56;;;14.65;100.00
18436;BME280;9346;52.006;4.720;2023-04-28T11:44:00;100917.78;;;14.62;100.00
18436;BME280;9346;52.006;4.720;2023-04-28T11:46:27;100924.66;;;14.64;100.00
18436;BME280;9346;52.006;4.720;2023-04-28T11:49:00;100924.38;;;14.66;100.00
18436;BME280;9346;52.006;4.720;2023-04-28T11:51:36;100923.47;;;14.70;100.00
18436;BME280;9346;52.006;4.720;2023-04-28T11:54:08;100926.78;;;14.72;100.00
18436;BME280;9346;52.006;4.720;2023-04-28T11:56:39;100933.06;;;14.78;100.00
18436;BME280;9346;52.006;4.720;2023-04-28T11:59:15;100928.56;;;14.82;100.00
18436;BME280;9346;52.006;4.720;2023-04-28T12:01:47;100928.28;;;14.83;100.00
18436;BME280;9346;52.006;4.720;2023-04-28T12:04:26;100927.97;;;14.85;100.00
18436;BME280;9346;52.006;4.720;2023-04-28T12:07:16;100934.34;;;14.85;100.00
18436;BME280;9346;52.006;4.720;2023-04-28T12:09:45;100922.44;;;14.85;100.00
18436;BME280;9346;52.006;4.720;2023-04-28T12:12:15;100932.38;;;14.86;100.00
18436;BME280;9346;52.006;4.720;2023-04-28T12:14:54;100934.66;;;14.84;100.00
18436;BME280;9346;52.006;4.720;2023-04-28T12:17:23;100938.22;;;14.84;100.00
18436;BME280;9346;52.006;4.720;2023-04-28T12:19:50;100938.47;;;14.88;100.00
18436;BME280;9346;52.006;4.720;2023-04-28T12:22:20;100937.63;;;14.87;100.00
18436;BME280;9346;52.006;4.720;2023-04-28T12:25:01;100935.09;;;14.91;100.00
18436;BME280;9346;52.006;4.720;2023-04-28T12:27:29;100938.91;;;14.95;100.00
18436;BME280;9346;52.006;4.720;2023-04-28T12:29:57;100940.53;;;14.96;100.00
18436;BME280;9346;52.006;4.720;2023-04-28T12:32:37;100947.97;;;15.00;100.00
18436;BME280;9346;52.006;4.720;2023-04-28T12:35:05;100947.66;;;15.02;100.00
18436;BME280;9346;52.006;4.720;2023-04-28T12:37:35;100947.75;;;14.97;100.00
18436;BME280;9346;52.006;4.720;2023-04-28T12:40:05;100939.94;;;14.99;100.00
18436;BME280;9346;52.006;4.720;2023-04-28T12:42:33;100944.16;;;14.96;100.00
18436;BME280;9346;52.006;4.720;2023-04-28T12:45:00;100948.50;;;15.02;100.00
18436;BME280;9346;52.006;4.720;2023-04-28T12:47:27;100942.66;;;15.04;100.00
18436;BME280;9346;52.006;4.720;2023-04-28T12:49:55;100948.75;;;15.06;100.00
18436;BME280;9346;52.006;4.720;2023-04-28T12:52:23;100948.75;;;15.06;100.00
18436;BME280;9346;52.006;4.720;2023-04-28T12:54:53;100954.66;;;14.99;100.00
18436;BME280;9346;52.006;4.720;2023-04-28T12:57:20;100960.28;;;14.94;100.00
18436;BME280;9346;52.006;4.720;2023-04-28T12:59:48;100948.97;;;14.91;100.00
18436;BME280;9346;52.006;4.720;2023-04-28T13:02:17;100957.28;;;14.91;100.00
18436;BME280;9346;52.006;4.720;2023-04-28T13:04:45;100960.34;;;14.89;100.00